LFBT/LDE METAR and TAF weather

Enter ICAO airport designator
Station Type Date Time Source
LFBT METAR 2021/01/16 03:00 UTC NOAA

LFBT 160300Z AUTO 15003KT CAVOK 01/01 Q1029 TEMPO 4000 BR


Station Type Date Time Source
LFBT Decoded METAR 2021/01/16 03:00 UTC NOAA

Tarbes Ossun Lourdes, France (LFBT) 43-11N 000-00W 363M
Jan 15, 2021 - 10:00 PM EST / 2021.01.16 0300 UTC
Wind: from the SSE (150 degrees) at 3 MPH (3 KT):0
Visibility: greater than 7 mile(s):0
Temperature: 33 F (1 C)
Dew Point: 33 F (1 C)
Relative Humidity: 100%
Pressure (altimeter): 30.39 in. Hg (1029 hPa)
ob: LFBT 160300Z AUTO 15003KT CAVOK 01/01 Q1029 TEMPO 4000 BR
cycle: 3

Station Type Date Time Source
LFBT TAF 2021/01/15 18:21 UTC NOAA

TAF LFBT 151700Z 1518/1618 27010KT 9999 BKN030 PROB30
TEMPO 1518/1519 4000 SHRA BKN012 BKN020TCU
BECMG 1519/1521 VRB03KT SCT040 PROB30
TEMPO 1600/1607 4000 BR BKN002
BECMG 1607/1609 CAVOK

Example: see airport list